Bda Roosevelt, Puerto Rico
Current Conditions -  °F | °C
As of 2:56 PM on Wednesday 17 Dec 2014 (Local Time) from TJSJ Reporting Station
Scattered Clouds Scattered Clouds  
Wind Chill: 82°   Ceiling: Unl
Heat Index: 86°   Visibility: 10mi
Dew Point: 70°   Wind: 9mph
Humidity: 67%   Direction: 10°N
Pressure: 29.99"   Gusts: NA
Location:  18.1909°N, 65.9618°W
Report Text: TJSJ 171856Z 01008KT 10SM SCT029 28/21 A2999 RMK AO2 SLP155 T02780211
Loading
Personal Weather Stations






























Interactive Weather Map New forecast layout! Learn more

10-Day Weather Forecast

Advertisements
Track Severe Weather on mobile